sensor_id;sensor_type;location;lat;lon;timestamp;pressure;altitude;pressure_sealevel;temperature;humidity
19831;BME280;10076;52.008;4.708;2023-04-05T00:02:19;102510.19;;;8.04;100.00
19831;BME280;10076;52.008;4.708;2023-04-05T00:04:45;102510.28;;;8.01;100.00
19831;BME280;10076;52.008;4.708;2023-04-05T00:07:21;102509.31;;;8.03;100.00
19831;BME280;10076;52.008;4.708;2023-04-05T00:09:48;102506.94;;;7.96;100.00
19831;BME280;10076;52.008;4.708;2023-04-05T00:12:13;102510.34;;;7.99;100.00
19831;BME280;10076;52.008;4.708;2023-04-05T00:14:38;102514.38;;;8.09;100.00
19831;BME280;10076;52.008;4.708;2023-04-05T00:17:04;102509.53;;;7.97;100.00
19831;BME280;10076;52.008;4.708;2023-04-05T00:19:30;102511.38;;;7.95;100.00
19831;BME280;10076;52.008;4.708;2023-04-05T00:21:58;102505.59;;;7.84;100.00
19831;BME280;10076;52.008;4.708;2023-04-05T00:24:23;102503.56;;;7.92;100.00
19831;BME280;10076;52.008;4.708;2023-04-05T00:26:49;102502.78;;;7.90;100.00
19831;BME280;10076;52.008;4.708;2023-04-05T00:29:15;102502.72;;;7.92;100.00
19831;BME280;10076;52.008;4.708;2023-04-05T00:31:40;102508.16;;;7.86;100.00
19831;BME280;10076;52.008;4.708;2023-04-05T00:34:05;102502.91;;;7.86;100.00
19831;BME280;10076;52.008;4.708;2023-04-05T00:36:33;102508.25;;;7.83;100.00
19831;BME280;10076;52.008;4.708;2023-04-05T00:38:58;102498.13;;;7.72;100.00
19831;BME280;10076;52.008;4.708;2023-04-05T00:41:23;102501.78;;;7.67;100.00
19831;BME280;10076;52.008;4.708;2023-04-05T00:43:49;102489.72;;;7.61;100.00
19831;BME280;10076;52.008;4.708;2023-04-05T00:46:15;102484.66;;;7.55;100.00
19831;BME280;10076;52.008;4.708;2023-04-05T00:48:41;102488.84;;;7.61;100.00
19831;BME280;10076;52.008;4.708;2023-04-05T00:51:06;102484.59;;;7.57;100.00
19831;BME280;10076;52.008;4.708;2023-04-05T00:53:36;102487.09;;;7.61;100.00
19831;BME280;10076;52.008;4.708;2023-04-05T00:56:14;102482.63;;;7.63;100.00
19831;BME280;10076;52.008;4.708;2023-04-05T00:58:40;102480.16;;;7.59;100.00
19831;BME280;10076;52.008;4.708;2023-04-05T01:01:11;102481.13;;;7.56;100.00
19831;BME280;10076;52.008;4.708;2023-04-05T01:03:40;102482.81;;;7.57;100.00
19831;BME280;10076;52.008;4.708;2023-04-05T01:08:59;102475.19;;;7.50;100.00
19831;BME280;10076;52.008;4.708;2023-04-05T01:11:29;102474.94;;;7.57;100.00
19831;BME280;10076;52.008;4.708;2023-04-05T01:13:59;102478.97;;;7.42;100.00
19831;BME280;10076;52.008;4.708;2023-04-05T01:16:24;102480.50;;;7.49;100.00
19831;BME280;10076;52.008;4.708;2023-04-05T01:18:50;102475.03;;;7.54;100.00
19831;BME280;10076;52.008;4.708;2023-04-05T01:27:06;102457.88;;;7.45;100.00
19831;BME280;10076;52.008;4.708;2023-04-05T01:29:44;102456.19;;;7.42;100.00
19831;BME280;10076;52.008;4.708;2023-04-05T01:35:29;102452.81;;;7.37;100.00
19831;BME280;10076;52.008;4.708;2023-04-05T01:38:00;102453.06;;;7.30;100.00
19831;BME280;10076;52.008;4.708;2023-04-05T01:40:27;102450.44;;;7.30;100.00
19831;BME280;10076;52.008;4.708;2023-04-05T01:42:54;102456.78;;;7.23;100.00
19831;BME280;10076;52.008;4.708;2023-04-05T01:45:19;102456.84;;;7.21;100.00
19831;BME280;10076;52.008;4.708;2023-04-05T01:47:45;102455.03;;;7.23;100.00
19831;BME280;10076;52.008;4.708;2023-04-05T01:50:10;102447.50;;;7.13;100.00
19831;BME280;10076;52.008;4.708;2023-04-05T01:52:35;102444.91;;;7.11;100.00
19831;BME280;10076;52.008;4.708;2023-04-05T01:55:00;102447.53;;;7.11;100.00
19831;BME280;10076;52.008;4.708;2023-04-05T01:57:27;102449.47;;;7.05;100.00
19831;BME280;10076;52.008;4.708;2023-04-05T01:59:52;102444.09;;;7.09;100.00
19831;BME280;10076;52.008;4.708;2023-04-05T02:02:18;102434.09;;;7.20;100.00
19831;BME280;10076;52.008;4.708;2023-04-05T02:04:43;102442.66;;;6.99;100.00
19831;BME280;10076;52.008;4.708;2023-04-05T02:07:08;102435.63;;;7.00;100.00
19831;BME280;10076;52.008;4.708;2023-04-05T02:09:34;102434.06;;;6.94;100.00
19831;BME280;10076;52.008;4.708;2023-04-05T02:11:59;102422.22;;;6.82;100.00
19831;BME280;10076;52.008;4.708;2023-04-05T02:14:25;102423.50;;;6.96;100.00
19831;BME280;10076;52.008;4.708;2023-04-05T02:16:50;102415.75;;;6.93;100.00
19831;BME280;10076;52.008;4.708;2023-04-05T02:19:18;102415.09;;;6.85;100.00
19831;BME280;10076;52.008;4.708;2023-04-05T02:21:49;102420.13;;;6.92;100.00
19831;BME280;10076;52.008;4.708;2023-04-05T02:24:18;102417.78;;;6.84;100.00
19831;BME280;10076;52.008;4.708;2023-04-05T02:26:43;102415.78;;;6.91;100.00
19831;BME280;10076;52.008;4.708;2023-04-05T02:29:08;102413.44;;;6.83;100.00
19831;BME280;10076;52.008;4.708;2023-04-05T02:31:34;102406.28;;;6.87;100.00
19831;BME280;10076;52.008;4.708;2023-04-05T02:33:59;102407.13;;;6.88;100.00
19831;BME280;10076;52.008;4.708;2023-04-05T02:36:25;102397.63;;;6.84;100.00
19831;BME280;10076;52.008;4.708;2023-04-05T02:38:52;102398.00;;;6.72;100.00
19831;BME280;10076;52.008;4.708;2023-04-05T02:41:18;102396.47;;;6.65;100.00
19831;BME280;10076;52.008;4.708;2023-04-05T02:43:44;102400.56;;;6.74;100.00
19831;BME280;10076;52.008;4.708;2023-04-05T02:46:10;102400.75;;;6.68;100.00
19831;BME280;10076;52.008;4.708;2023-04-05T02:48:35;102402.34;;;6.73;100.00
19831;BME280;10076;52.008;4.708;2023-04-05T02:51:01;102392.56;;;6.49;100.00
19831;BME280;10076;52.008;4.708;2023-04-05T02:53:26;102391.19;;;6.36;100.00
19831;BME280;10076;52.008;4.708;2023-04-05T02:55:56;102391.25;;;6.35;100.00
19831;BME280;10076;52.008;4.708;2023-04-05T02:58:22;102382.72;;;6.28;100.00
19831;BME280;10076;52.008;4.708;2023-04-05T03:00:48;102387.81;;;6.33;100.00
19831;BME280;10076;52.008;4.708;2023-04-05T03:03:19;102388.06;;;6.24;100.00
19831;BME280;10076;52.008;4.708;2023-04-05T03:05:45;102384.63;;;6.23;100.00
19831;BME280;10076;52.008;4.708;2023-04-05T03:08:13;102383.63;;;6.27;100.00
19831;BME280;10076;52.008;4.708;2023-04-05T03:10:44;102376.81;;;6.20;100.00
19831;BME280;10076;52.008;4.708;2023-04-05T03:13:10;102380.50;;;6.15;100.00
19831;BME280;10076;52.008;4.708;2023-04-05T03:15:35;102375.97;;;6.20;100.00
19831;BME280;10076;52.008;4.708;2023-04-05T03:18:00;102371.84;;;6.12;100.00
19831;BME280;10076;52.008;4.708;2023-04-05T03:20:26;102375.25;;;6.14;100.00
19831;BME280;10076;52.008;4.708;2023-04-05T03:22:51;102374.66;;;6.04;100.00
19831;BME280;10076;52.008;4.708;2023-04-05T03:25:16;102380.13;;;5.97;100.00
19831;BME280;10076;52.008;4.708;2023-04-05T03:27:42;102379.72;;;6.12;100.00
19831;BME280;10076;52.008;4.708;2023-04-05T03:30:07;102377.31;;;6.03;100.00
19831;BME280;10076;52.008;4.708;2023-04-05T03:32:33;102380.03;;;6.00;100.00
19831;BME280;10076;52.008;4.708;2023-04-05T03:34:59;102379.31;;;5.95;100.00
19831;BME280;10076;52.008;4.708;2023-04-05T03:37:25;102376.59;;;5.98;100.00
19831;BME280;10076;52.008;4.708;2023-04-05T03:39:50;102375.66;;;6.00;100.00
19831;BME280;10076;52.008;4.708;2023-04-05T03:42:15;102378.19;;;6.03;100.00
19831;BME280;10076;52.008;4.708;2023-04-05T03:44:42;102382.72;;;5.97;100.00
19831;BME280;10076;52.008;4.708;2023-04-05T03:47:07;102375.59;;;6.03;100.00
19831;BME280;10076;52.008;4.708;2023-04-05T03:49:32;102376.88;;;5.87;100.00
19831;BME280;10076;52.008;4.708;2023-04-05T03:51:57;102372.72;;;5.80;100.00
19831;BME280;10076;52.008;4.708;2023-04-05T03:54:23;102378.81;;;5.81;100.00
19831;BME280;10076;52.008;4.708;2023-04-05T03:56:48;102383.06;;;5.85;100.00
19831;BME280;10076;52.008;4.708;2023-04-05T03:59:13;102381.34;;;5.84;100.00
19831;BME280;10076;52.008;4.708;2023-04-05T04:01:39;102372.84;;;5.74;100.00
19831;BME280;10076;52.008;4.708;2023-04-05T04:04:04;102372.78;;;5.77;100.00
19831;BME280;10076;52.008;4.708;2023-04-05T04:06:30;102371.00;;;5.78;100.00
19831;BME280;10076;52.008;4.708;2023-04-05T04:08:55;102368.72;;;5.66;100.00
19831;BME280;10076;52.008;4.708;2023-04-05T04:11:21;102371.72;;;5.51;100.00
19831;BME280;10076;52.008;4.708;2023-04-05T04:13:46;102369.81;;;5.56;100.00
19831;BME280;10076;52.008;4.708;2023-04-05T04:16:11;102363.66;;;5.58;100.00
19831;BME280;10076;52.008;4.708;2023-04-05T04:18:37;102376.13;;;5.49;100.00
19831;BME280;10076;52.008;4.708;2023-04-05T04:21:02;102359.66;;;5.44;100.00
19831;BME280;10076;52.008;4.708;2023-04-05T04:23:32;102366.56;;;5.48;100.00
19831;BME280;10076;52.008;4.708;2023-04-05T04:25:58;102369.19;;;5.46;100.00
19831;BME280;10076;52.008;4.708;2023-04-05T04:28:26;102367.97;;;5.26;100.00
19831;BME280;10076;52.008;4.708;2023-04-05T04:30:52;102368.91;;;5.25;100.00
19831;BME280;10076;52.008;4.708;2023-04-05T04:33:17;102370.13;;;5.44;100.00
19831;BME280;10076;52.008;4.708;2023-04-05T04:35:44;102366.78;;;5.39;100.00
19831;BME280;10076;52.008;4.708;2023-04-05T04:38:10;102361.00;;;5.27;100.00
19831;BME280;10076;52.008;4.708;2023-04-05T04:40:42;102358.28;;;5.30;100.00
19831;BME280;10076;52.008;4.708;2023-04-05T04:43:12;102367.19;;;5.24;100.00
19831;BME280;10076;52.008;4.708;2023-04-05T04:45:45;102364.50;;;5.26;100.00
19831;BME280;10076;52.008;4.708;2023-04-05T04:48:16;102362.72;;;5.28;100.00
19831;BME280;10076;52.008;4.708;2023-04-05T04:50:43;102362.41;;;5.40;100.00
19831;BME280;10076;52.008;4.708;2023-04-05T04:53:09;102352.78;;;5.40;100.00
19831;BME280;10076;52.008;4.708;2023-04-05T04:55:35;102359.03;;;5.36;100.00
19831;BME280;10076;52.008;4.708;2023-04-05T04:58:00;102359.81;;;5.38;100.00
19831;BME280;10076;52.008;4.708;2023-04-05T05:00:26;102360.09;;;5.28;100.00
19831;BME280;10076;52.008;4.708;2023-04-05T05:02:51;102361.91;;;5.26;100.00
19831;BME280;10076;52.008;4.708;2023-04-05T05:05:17;102353.94;;;5.29;100.00
19831;BME280;10076;52.008;4.708;2023-04-05T05:07:42;102361.69;;;5.33;100.00
19831;BME280;10076;52.008;4.708;2023-04-05T05:10:09;102356.50;;;5.32;100.00
19831;BME280;10076;52.008;4.708;2023-04-05T05:12:35;102364.09;;;5.42;100.00
19831;BME280;10076;52.008;4.708;2023-04-05T05:15:01;102361.34;;;5.48;100.00
19831;BME280;10076;52.008;4.708;2023-04-05T05:17:26;102365.78;;;5.43;100.00
19831;BME280;10076;52.008;4.708;2023-04-05T05:19:51;102369.25;;;5.45;100.00
19831;BME280;10076;52.008;4.708;2023-04-05T05:22:17;102364.06;;;5.44;100.00
19831;BME280;10076;52.008;4.708;2023-04-05T05:24:46;102364.16;;;5.39;100.00
19831;BME280;10076;52.008;4.708;2023-04-05T05:27:12;102361.78;;;5.30;100.00
19831;BME280;10076;52.008;4.708;2023-04-05T05:29:37;102377.09;;;5.45;100.00
19831;BME280;10076;52.008;4.708;2023-04-05T05:32:03;102365.84;;;5.42;100.00
19831;BME280;10076;52.008;4.708;2023-04-05T05:34:28;102376.16;;;5.47;100.00
19831;BME280;10076;52.008;4.708;2023-04-05T05:36:54;102366.56;;;5.48;100.00
19831;BME280;10076;52.008;4.708;2023-04-05T05:39:20;102376.13;;;5.49;100.00
19831;BME280;10076;52.008;4.708;2023-04-05T05:41:46;102369.19;;;5.46;100.00
19831;BME280;10076;52.008;4.708;2023-04-05T05:44:11;102369.63;;;5.63;100.00
19831;BME280;10076;52.008;4.708;2023-04-05T05:46:36;102373.69;;;5.75;100.00
19831;BME280;10076;52.008;4.708;2023-04-05T05:49:02;102367.72;;;5.70;100.00
19831;BME280;10076;52.008;4.708;2023-04-05T05:51:27;102368.31;;;5.81;100.00
19831;BME280;10076;52.008;4.708;2023-04-05T05:53:52;102374.31;;;5.86;100.00
19831;BME280;10076;52.008;4.708;2023-04-05T05:56:17;102369.09;;;5.84;100.00
19831;BME280;10076;52.008;4.708;2023-04-05T05:58:43;102370.53;;;5.96;100.00
19831;BME280;10076;52.008;4.708;2023-04-05T06:01:08;102373.13;;;5.97;100.00
19831;BME280;10076;52.008;4.708;2023-04-05T06:03:36;102361.41;;;6.09;100.00
19831;BME280;10076;52.008;4.708;2023-04-05T06:06:01;102367.72;;;6.03;100.00
19831;BME280;10076;52.008;4.708;2023-04-05T06:08:30;102368.44;;;6.08;100.00
19831;BME280;10076;52.008;4.708;2023-04-05T06:10:56;102374.53;;;6.09;100.00
19831;BME280;10076;52.008;4.708;2023-04-05T06:13:22;102369.84;;;6.19;100.00
19831;BME280;10076;52.008;4.708;2023-04-05T06:15:47;102372.75;;;6.11;100.00
19831;BME280;10076;52.008;4.708;2023-04-05T06:18:13;102383.06;;;6.17;100.00
19831;BME280;10076;52.008;4.708;2023-04-05T06:20:38;102373.06;;;6.29;100.00
19831;BME280;10076;52.008;4.708;2023-04-05T06:23:08;102377.13;;;6.39;100.00
19831;BME280;10076;52.008;4.708;2023-04-05T06:25:33;102378.44;;;6.55;100.00
19831;BME280;10076;52.008;4.708;2023-04-05T06:27:59;102378.13;;;6.64;100.00
19831;BME280;10076;52.008;4.708;2023-04-05T06:30:24;102389.13;;;6.76;100.00
19831;BME280;10076;52.008;4.708;2023-04-05T06:32:50;102382.66;;;6.87;100.00
19831;BME280;10076;52.008;4.708;2023-04-05T06:35:22;102380.06;;;6.86;100.00
19831;BME280;10076;52.008;4.708;2023-04-05T06:37:47;102384.44;;;6.87;100.00
19831;BME280;10076;52.008;4.708;2023-04-05T06:40:13;102383.16;;;6.98;100.00
19831;BME280;10076;52.008;4.708;2023-04-05T06:42:38;102379.06;;;7.17;100.00
19831;BME280;10076;52.008;4.708;2023-04-05T06:45:04;102381.44;;;7.25;100.00
19831;BME280;10076;52.008;4.708;2023-04-05T06:47:37;102386.50;;;7.31;100.00
19831;BME280;10076;52.008;4.708;2023-04-05T06:50:07;102382.13;;;7.30;100.00
19831;BME280;10076;52.008;4.708;2023-04-05T06:52:33;102370.97;;;7.23;100.00
19831;BME280;10076;52.008;4.708;2023-04-05T06:54:59;102379.09;;;7.42;100.00
19831;BME280;10076;52.008;4.708;2023-04-05T06:57:24;102371.84;;;7.50;100.00
19831;BME280;10076;52.008;4.708;2023-04-05T06:59:53;102371.34;;;7.39;100.00
19831;BME280;10076;52.008;4.708;2023-04-05T07:02:19;102368.09;;;7.56;100.00
19831;BME280;10076;52.008;4.708;2023-04-05T07:04:45;102372.97;;;7.67;100.00
19831;BME280;10076;52.008;4.708;2023-04-05T07:07:11;102371.78;;;7.75;100.00
19831;BME280;10076;52.008;4.708;2023-04-05T07:09:37;102368.16;;;7.79;100.00
19831;BME280;10076;52.008;4.708;2023-04-05T07:12:04;102367.13;;;7.83;100.00
19831;BME280;10076;52.008;4.708;2023-04-05T07:14:31;102365.03;;;7.93;100.00
19831;BME280;10076;52.008;4.708;2023-04-05T07:16:57;102366.22;;;8.09;100.00
19831;BME280;10076;52.008;4.708;2023-04-05T07:19:23;102357.75;;;8.25;100.00
19831;BME280;10076;52.008;4.708;2023-04-05T07:21:48;102367.38;;;8.26;100.00
19831;BME280;10076;52.008;4.708;2023-04-05T07:24:14;102352.81;;;8.16;100.00
19831;BME280;10076;52.008;4.708;2023-04-05T07:26:39;102363.22;;;8.19;100.00
19831;BME280;10076;52.008;4.708;2023-04-05T07:29:05;102360.41;;;8.23;100.00
19831;BME280;10076;52.008;4.708;2023-04-05T07:31:35;102355.66;;;8.33;100.00
19831;BME280;10076;52.008;4.708;2023-04-05T07:34:01;102349.25;;;8.17;100.00
19831;BME280;10076;52.008;4.708;2023-04-05T07:36:27;102359.06;;;8.12;100.00
19831;BME280;10076;52.008;4.708;2023-04-05T07:38:55;102348.28;;;8.20;100.00
19831;BME280;10076;52.008;4.708;2023-04-05T07:41:21;102359.69;;;8.20;100.00
19831;BME280;10076;52.008;4.708;2023-04-05T07:43:47;102357.28;;;8.14;100.00
19831;BME280;10076;52.008;4.708;2023-04-05T07:46:14;102361.78;;;8.09;100.00
19831;BME280;10076;52.008;4.708;2023-04-05T07:48:39;102364.81;;;8.23;100.00
19831;BME280;10076;52.008;4.708;2023-04-05T07:51:05;102353.25;;;8.50;100.00
19831;BME280;10076;52.008;4.708;2023-04-05T07:53:32;102357.72;;;8.71;100.00
19831;BME280;10076;52.008;4.708;2023-04-05T07:55:57;102352.44;;;8.71;100.00
19831;BME280;10076;52.008;4.708;2023-04-05T07:58:26;102354.53;;;8.84;100.00
19831;BME280;10076;52.008;4.708;2023-04-05T08:00:58;102353.81;;;8.81;100.00
19831;BME280;10076;52.008;4.708;2023-04-05T08:03:23;102355.28;;;8.88;100.00
19831;BME280;10076;52.008;4.708;2023-04-05T08:05:49;102364.59;;;8.96;100.00
19831;BME280;10076;52.008;4.708;2023-04-05T08:08:14;102358.91;;;9.06;100.00
19831;BME280;10076;52.008;4.708;2023-04-05T08:10:40;102360.00;;;9.22;100.00
19831;BME280;10076;52.008;4.708;2023-04-05T08:13:05;102357.47;;;9.19;100.00
19831;BME280;10076;52.008;4.708;2023-04-05T08:15:32;102359.31;;;9.17;100.00
19831;BME280;10076;52.008;4.708;2023-04-05T08:17:58;102350.53;;;9.38;100.00
19831;BME280;10076;52.008;4.708;2023-04-05T08:20:23;102349.31;;;9.66;100.00
19831;BME280;10076;52.008;4.708;2023-04-05T08:22:48;102352.59;;;9.71;100.00
19831;BME280;10076;52.008;4.708;2023-04-05T08:25:14;102343.16;;;9.86;100.00
19831;BME280;10076;52.008;4.708;2023-04-05T08:27:39;102345.41;;;10.15;100.00
19831;BME280;10076;52.008;4.708;2023-04-05T08:30:06;102341.22;;;10.29;100.00
19831;BME280;10076;52.008;4.708;2023-04-05T08:32:32;102353.22;;;10.36;100.00
19831;BME280;10076;52.008;4.708;2023-04-05T08:34:58;102346.06;;;10.38;100.00
19831;BME280;10076;52.008;4.708;2023-04-05T08:37:23;102346.16;;;10.73;100.00
19831;BME280;10076;52.008;4.708;2023-04-05T08:39:48;102338.19;;;10.92;100.00
19831;BME280;10076;52.008;4.708;2023-04-05T08:42:18;102339.94;;;11.09;100.00
19831;BME280;10076;52.008;4.708;2023-04-05T08:44:50;102338.84;;;11.32;100.00
19831;BME280;10076;52.008;4.708;2023-04-05T08:47:18;102338.69;;;11.52;100.00
19831;BME280;10076;52.008;4.708;2023-04-05T08:49:44;102333.09;;;11.58;100.00
19831;BME280;10076;52.008;4.708;2023-04-05T08:52:10;102335.81;;;11.73;100.00
19831;BME280;10076;52.008;4.708;2023-04-05T08:54:35;102333.13;;;12.07;100.00
19831;BME280;10076;52.008;4.708;2023-04-05T08:57:02;102338.34;;;12.56;100.00
19831;BME280;10076;52.008;4.708;2023-04-05T08:59:31;102342.03;;;12.84;100.00
19831;BME280;10076;52.008;4.708;2023-04-05T09:02:00;102340.69;;;12.93;100.00
19831;BME280;10076;52.008;4.708;2023-04-05T09:04:28;102341.78;;;13.19;100.00
19831;BME280;10076;52.008;4.708;2023-04-05T09:06:57;102341.44;;;13.10;100.00
19831;BME280;10076;52.008;4.708;2023-04-05T09:09:23;102341.50;;;13.24;98.92
19831;BME280;10076;52.008;4.708;2023-04-05T09:11:49;102344.06;;;13.25;90.24
19831;BME280;10076;52.008;4.708;2023-04-05T09:14:16;102331.00;;;13.22;90.79
19831;BME280;10076;52.008;4.708;2023-04-05T09:16:42;102339.84;;;13.66;94.92
19831;BME280;10076;52.008;4.708;2023-04-05T09:19:08;102344.34;;;13.79;89.30
19831;BME280;10076;52.008;4.708;2023-04-05T09:24:34;102336.22;;;15.71;80.20
19831;BME280;10076;52.008;4.708;2023-04-05T09:27:19;102342.31;;;16.96;67.11
19831;BME280;10076;52.008;4.708;2023-04-05T09:29:46;102337.13;;;17.86;60.40
19831;BME280;10076;52.008;4.708;2023-04-05T09:32:13;102341.69;;;18.95;57.62
19831;BME280;10076;52.008;4.708;2023-04-05T09:34:40;102338.81;;;20.51;57.55
19831;BME280;10076;52.008;4.708;2023-04-05T09:37:16;102348.09;;;21.45;49.81
19831;BME280;10076;52.008;4.708;2023-04-05T09:39:44;102343.97;;;22.16;45.39
19831;BME280;10076;52.008;4.708;2023-04-05T09:42:14;102340.91;;;23.28;43.99
19831;BME280;10076;52.008;4.708;2023-04-05T09:44:57;102339.81;;;23.03;39.79
19831;BME280;10076;52.008;4.708;2023-04-05T09:47:27;102337.34;;;23.79;43.10
19831;BME280;10076;52.008;4.708;2023-04-05T09:50:00;102342.22;;;24.77;37.29
19831;BME280;10076;52.008;4.708;2023-04-05T09:52:30;102328.72;;;24.44;35.80
19831;BME280;10076;52.008;4.708;2023-04-05T09:55:01;102339.38;;;24.87;37.32
19831;BME280;10076;52.008;4.708;2023-04-05T09:57:27;102338.22;;;25.94;37.49
19831;BME280;10076;52.008;4.708;2023-04-05T09:59:54;102335.44;;;27.48;35.09
19831;BME280;10076;52.008;4.708;2023-04-05T10:02:21;102329.59;;;28.33;33.20
19831;BME280;10076;52.008;4.708;2023-04-05T10:04:47;102328.03;;;29.02;32.72
19831;BME280;10076;52.008;4.708;2023-04-05T10:07:15;102338.59;;;29.89;33.73
19831;BME280;10076;52.008;4.708;2023-04-05T10:09:42;102330.38;;;30.37;30.99
19831;BME280;10076;52.008;4.708;2023-04-05T10:12:08;102327.34;;;30.93;32.02
19831;BME280;10076;52.008;4.708;2023-04-05T10:14:35;102326.41;;;30.06;27.66
19831;BME280;10076;52.008;4.708;2023-04-05T10:17:55;102315.09;;;29.88;28.27
19831;BME280;10076;52.008;4.708;2023-04-05T10:20:18;102320.75;;;29.38;27.25
19831;BME280;10076;52.008;4.708;2023-04-05T10:22:56;102315.59;;;30.18;29.92
19831;BME280;10076;52.008;4.708;2023-04-05T10:25:30;102319.00;;;30.61;27.21
19831;BME280;10076;52.008;4.708;2023-04-05T10:28:04;102314.19;;;29.53;26.82
19831;BME280;10076;52.008;4.708;2023-04-05T10:30:35;102322.03;;;29.63;28.04
19831;BME280;10076;52.008;4.708;2023-04-05T10:33:20;102317.97;;;30.55;26.58
19831;BME280;10076;52.008;4.708;2023-04-05T10:39:00;102317.31;;;31.92;26.92
19831;BME280;10076;52.008;4.708;2023-04-05T10:41:26;102318.22;;;31.13;24.71
19831;BME280;10076;52.008;4.708;2023-04-05T10:43:55;102315.50;;;30.39;26.27
19831;BME280;10076;52.008;4.708;2023-04-05T10:46:21;102312.09;;;31.05;25.63
19831;BME280;10076;52.008;4.708;2023-04-05T10:48:58;102311.19;;;31.70;26.58
19831;BME280;10076;52.008;4.708;2023-04-05T10:51:28;102308.97;;;30.61;25.01
19831;BME280;10076;52.008;4.708;2023-04-05T10:53:55;102306.16;;;30.95;24.94
19831;BME280;10076;52.008;4.708;2023-04-05T10:56:21;102303.84;;;31.64;25.42
19831;BME280;10076;52.008;4.708;2023-04-05T10:58:48;102289.88;;;31.14;25.73
19831;BME280;10076;52.008;4.708;2023-04-05T11:01:14;102291.00;;;30.80;25.71
19831;BME280;10076;52.008;4.708;2023-04-05T11:03:45;102287.44;;;30.79;25.70
19831;BME280;10076;52.008;4.708;2023-04-05T11:06:30;102283.03;;;33.22;25.89
19831;BME280;10076;52.008;4.708;2023-04-05T11:08:57;102285.13;;;34.95;23.67
19831;BME280;10076;52.008;4.708;2023-04-05T11:11:23;102292.91;;;34.27;22.02
19831;BME280;10076;52.008;4.708;2023-04-05T11:13:56;102285.41;;;33.43;22.96
19831;BME280;10076;52.008;4.708;2023-04-05T11:16:23;102280.06;;;32.04;22.94
19831;BME280;10076;52.008;4.708;2023-04-05T11:19:02;102278.09;;;32.43;23.05
19831;BME280;10076;52.008;4.708;2023-04-05T11:21:28;102276.59;;;32.47;22.82
19831;BME280;10076;52.008;4.708;2023-04-05T11:24:01;102280.84;;;33.30;23.10
19831;BME280;10076;52.008;4.708;2023-04-05T11:26:32;102274.50;;;32.99;23.24
19831;BME280;10076;52.008;4.708;2023-04-05T11:28:57;102270.69;;;33.37;24.33
19831;BME280;10076;52.008;4.708;2023-04-05T11:31:22;102262.97;;;33.83;23.42
19831;BME280;10076;52.008;4.708;2023-04-05T11:34:12;102270.34;;;34.07;22.61
19831;BME280;10076;52.008;4.708;2023-04-05T11:36:41;102270.88;;;33.42;22.30
19831;BME280;10076;52.008;4.708;2023-04-05T11:41:53;102267.41;;;33.53;23.98
19831;BME280;10076;52.008;4.708;2023-04-05T11:44:20;102257.84;;;35.00;22.99
19831;BME280;10076;52.008;4.708;2023-04-05T11:46:45;102254.44;;;35.80;22.55
19831;BME280;10076;52.008;4.708;2023-04-05T11:49:12;102253.56;;;35.56;22.46
19831;BME280;10076;52.008;4.708;2023-04-05T11:51:39;102246.97;;;33.56;21.92
19831;BME280;10076;52.008;4.708;2023-04-05T11:54:07;102242.00;;;34.48;24.27
19831;BME280;10076;52.008;4.708;2023-04-05T11:56:32;102235.41;;;35.55;22.54
19831;BME280;10076;52.008;4.708;2023-04-05T11:58:58;102241.09;;;34.37;21.92
19831;BME280;10076;52.008;4.708;2023-04-05T12:01:23;102232.09;;;34.65;22.16
19831;BME280;10076;52.008;4.708;2023-04-05T12:03:53;102230.81;;;34.32;21.72
19831;BME280;10076;52.008;4.708;2023-04-05T12:06:22;102228.97;;;34.08;22.62
19831;BME280;10076;52.008;4.708;2023-04-05T12:08:48;102229.16;;;34.78;22.67
19831;BME280;10076;52.008;4.708;2023-04-05T12:11:16;102233.63;;;34.08;21.62
19831;BME280;10076;52.008;4.708;2023-04-05T12:13:47;102235.13;;;34.22;23.29
19831;BME280;10076;52.008;4.708;2023-04-05T12:16:12;102229.66;;;36.25;22.57
19831;BME280;10076;52.008;4.708;2023-04-05T12:18:37;102230.72;;;37.63;21.96
19831;BME280;10076;52.008;4.708;2023-04-05T12:21:05;102233.13;;;39.21;21.43
19831;BME280;10076;52.008;4.708;2023-04-05T12:23:31;102224.19;;;38.61;19.71
19831;BME280;10076;52.008;4.708;2023-04-05T12:25:57;102223.78;;;38.15;19.69
19831;BME280;10076;52.008;4.708;2023-04-05T12:28:22;102217.34;;;35.07;20.88
19831;BME280;10076;52.008;4.708;2023-04-05T12:33:13;102211.25;;;35.57;22.35
19831;BME280;10076;52.008;4.708;2023-04-05T12:35:38;102208.31;;;35.29;20.93
19831;BME280;10076;52.008;4.708;2023-04-05T12:38:06;102204.16;;;36.18;20.98
19831;BME280;10076;52.008;4.708;2023-04-05T12:40:36;102206.94;;;36.97;22.56
19831;BME280;10076;52.008;4.708;2023-04-05T12:43:06;102208.34;;;38.78;20.38
19831;BME280;10076;52.008;4.708;2023-04-05T12:45:32;102202.66;;;38.89;20.65
19831;BME280;10076;52.008;4.708;2023-04-05T12:48:08;102205.00;;;38.76;18.64
19831;BME280;10076;52.008;4.708;2023-04-05T12:50:34;102199.31;;;38.40;19.13
19831;BME280;10076;52.008;4.708;2023-04-05T12:53:04;102199.97;;;37.71;19.26
19831;BME280;10076;52.008;4.708;2023-04-05T12:55:30;102194.03;;;36.19;20.43
19831;BME280;10076;52.008;4.708;2023-04-05T12:57:59;102196.16;;;36.95;20.75
19831;BME280;10076;52.008;4.708;2023-04-05T13:00:27;102190.19;;;37.15;21.05
19831;BME280;10076;52.008;4.708;2023-04-05T13:02:54;102175.41;;;37.37;20.72
19831;BME280;10076;52.008;4.708;2023-04-05T13:05:21;102175.16;;;35.65;20.46
19831;BME280;10076;52.008;4.708;2023-04-05T13:07:47;102161.13;;;35.21;20.61
19831;BME280;10076;52.008;4.708;2023-04-05T13:10:12;102167.13;;;34.59;21.78
19831;BME280;10076;52.008;4.708;2023-04-05T13:12:38;102171.00;;;32.83;22.71
19831;BME280;10076;52.008;4.708;2023-04-05T13:15:04;102155.00;;;31.41;23.92